Time;durP1;ratioP1;P1;durP2;ratioP2;P2;SDS_P1;SDS_P2;PMS_P1;PMS_P2;Temp;Humidity;BMP_temperature;BMP_pressure;BME280_temperature;BME280_humidity;BME280_pressure;Samples;Min_cycle;Max_cycle;Signal;HPM_P1;HPM_P2
2023/06/24 00:00:39;;;;;;;15.80;6.00;;;;;;;21.22;100.00;100119.44;105144;1260;71831;-44
2023/06/24 00:03:07;;;;;;;15.50;7.20;;;;;;;21.19;100.00;100120.55;105168;1260;65955;-44
2023/06/24 00:05:35;;;;;;;17.20;5.90;;;;;;;21.16;100.00;100123.39;105150;1265;74173;-45
2023/06/24 00:08:06;;;;;;;11.30;6.00;;;;;;;21.14;100.00;100121.06;105065;1265;59887;-45
2023/06/24 00:10:34;;;;;;;13.80;5.90;;;;;;;21.09;100.00;100122.60;105504;1257;59759;-44
2023/06/24 00:13:02;;;;;;;9.50;6.20;;;;;;;21.07;100.00;100128.88;105528;1256;71794;-44
2023/06/24 00:15:30;;;;;;;17.50;6.00;;;;;;;21.05;100.00;100121.68;105539;1261;65586;-45
2023/06/24 00:18:05;;;;;;;20.40;6.20;;;;;;;21.01;100.00;100120.69;105492;1257;71908;-45
2023/06/24 00:20:34;;;;;;;16.10;6.00;;;;;;;20.99;100.00;100120.52;105416;1257;59723;-45
2023/06/24 00:23:02;;;;;;;16.00;5.90;;;;;;;20.95;100.00;100130.00;105522;1260;59703;-45
2023/06/24 00:25:30;;;;;;;11.30;5.90;;;;;;;20.98;100.00;100134.40;105506;1260;71082;-45
2023/06/24 00:27:57;;;;;;;16.90;6.30;;;;;;;21.01;100.00;100131.23;105413;1262;65307;-45
2023/06/24 00:30:26;;;;;;;7.20;5.50;;;;;;;21.00;100.00;100127.82;105474;1257;70642;-45
2023/06/24 00:32:55;;;;;;;16.80;5.90;;;;;;;20.94;100.00;100130.95;105517;1257;60040;-45
2023/06/24 00:35:24;;;;;;;11.90;6.60;;;;;;;20.89;100.00;100134.67;105431;1257;59563;-43
2023/06/24 00:37:58;;;;;;;19.20;7.00;;;;;;;20.83;100.00;100149.05;105415;1262;72102;-43
2023/06/24 00:40:27;;;;;;;22.80;6.70;;;;;;;20.75;100.00;100165.48;105425;1257;65249;-43
2023/06/24 00:42:54;;;;;;;11.70;5.70;;;;;;;20.70;100.00;100181.45;105438;1263;72652;-44
2023/06/24 00:45:22;;;;;;;18.80;5.60;;;;;;;20.64;100.00;100189.17;105351;1258;60122;-43
2023/06/24 00:47:51;;;;;;;20.90;5.80;;;;;;;20.60;100.00;100199.09;105537;1257;59564;-43
2023/06/24 00:50:19;;;;;;;13.10;6.80;;;;;;;20.54;100.00;100219.10;105438;1257;72242;-43
2023/06/24 00:52:48;;;;;;;12.20;5.90;;;;;;;20.46;100.00;100246.56;105413;1257;64413;-44
2023/06/24 00:55:16;;;;;;;21.90;5.90;;;;;;;20.38;100.00;100278.27;105256;1260;72713;-44
2023/06/24 00:57:45;;;;;;;12.40;5.60;;;;;;;20.31;100.00;100319.38;105391;1257;60039;-44
2023/06/24 01:00:17;;;;;;;13.60;5.90;;;;;;;20.21;100.00;100359.52;105222;1262;59635;-44
2023/06/24 01:02:44;;;;;;;17.80;6.10;;;;;;;20.14;100.00;100393.75;105547;1257;71853;-44
2023/06/24 01:05:12;;;;;;;15.40;6.80;;;;;;;20.07;100.00;100414.13;105219;1257;63924;-46
2023/06/24 01:07:41;;;;;;;12.00;6.20;;;;;;;20.04;100.00;100425.54;105487;1257;71299;-44
2023/06/24 01:10:12;;;;;;;15.60;5.90;;;;;;;20.01;100.00;100430.77;105460;1257;61675;-45
2023/06/24 01:12:40;;;;;;;12.50;5.50;;;;;;;20.00;100.00;100424.90;105497;1257;60082;-45
2023/06/24 01:15:09;;;;;;;13.00;6.00;;;;;;;20.01;100.00;100413.11;105470;1258;72997;-44
2023/06/24 01:18:04;;;;;;;13.50;5.90;;;;;;;20.01;100.00;100402.73;105525;1257;63926;-43
2023/06/24 01:21:01;;;;;;;15.60;6.00;;;;;;;20.04;100.00;100390.52;105455;1258;71275;-44
2023/06/24 01:23:38;;;;;;;17.20;5.60;;;;;;;20.06;100.00;100383.20;105587;1254;60373;-45
2023/06/24 01:26:25;;;;;;;14.20;6.60;;;;;;;20.06;100.00;100376.50;105686;1254;59982;-44
2023/06/24 01:29:08;;;;;;;10.90;6.10;;;;;;;20.07;100.00;100376.98;105610;1254;72044;-45
2023/06/24 01:31:49;;;;;;;20.50;6.40;;;;;;;20.09;100.00;100369.02;105603;1254;64289;-44
2023/06/24 01:34:39;;;;;;;11.10;5.80;;;;;;;20.11;100.00;100357.34;105657;1254;72695;-44
2023/06/24 01:37:22;;;;;;;16.10;5.90;;;;;;;20.10;100.00;100355.11;105517;1259;60422;-45
2023/06/24 01:40:09;;;;;;;11.10;6.50;;;;;;;20.08;100.00;100356.42;105628;1259;59957;-44
2023/06/24 01:43:39;;;;;;;16.20;6.10;;;;;;;20.14;100.00;100319.17;102547;1291;600224;-43
2023/06/24 01:46:06;;;;;;;13.90;6.60;;;;;;;20.14;100.00;100325.96;104696;1272;60460;-43
2023/06/24 01:48:37;;;;;;;11.80;5.60;;;;;;;20.14;100.00;100334.07;104765;1270;59515;-43
2023/06/24 01:51:13;;;;;;;19.50;6.00;;;;;;;20.16;100.00;100337.79;104849;1267;72204;-43
2023/06/24 01:53:43;;;;;;;17.90;6.40;;;;;;;20.22;100.00;100330.41;104769;1266;64151;-44
2023/06/24 01:56:12;;;;;;;14.40;6.30;;;;;;;20.28;100.00;100304.12;104612;1266;221504;-44
2023/06/24 01:58:40;;;;;;;14.50;6.20;;;;;;;20.30;100.00;100288.97;105057;1264;60818;-44
2023/06/24 02:01:07;;;;;;;11.50;5.60;;;;;;;20.29;100.00;100275.30;105014;1263;60059;-43
2023/06/24 02:03:36;;;;;;;12.40;5.30;;;;;;;20.28;100.00;100274.83;105126;1263;70955;-43
2023/06/24 02:06:04;;;;;;;13.10;6.30;;;;;;;20.27;100.00;100269.31;105134;1266;63514;-44
2023/06/24 02:08:34;;;;;;;16.40;6.50;;;;;;;20.26;100.00;100269.20;105127;1261;71428;-44
2023/06/24 02:11:01;;;;;;;13.50;6.20;;;;;;;20.25;100.00;100275.91;105390;1265;60056;-44
2023/06/24 02:13:32;;;;;;;11.00;5.80;;;;;;;20.26;100.00;100286.34;105045;1263;59919;-44
2023/06/24 02:16:00;;;;;;;11.90;5.50;;;;;;;20.27;100.00;100286.16;104928;1268;73029;-44
2023/06/24 02:18:27;;;;;;;12.80;5.80;;;;;;;20.24;100.00;100286.48;105163;1269;64721;-44
2023/06/24 02:20:56;;;;;;;9.70;6.00;;;;;;;20.23;100.00;100282.55;105139;1263;71801;-43
2023/06/24 02:23:24;;;;;;;15.30;6.20;;;;;;;20.22;100.00;100279.61;104798;1263;59641;-43
2023/06/24 02:25:51;;;;;;;14.50;5.80;;;;;;;20.21;100.00;100284.06;105173;1267;60064;-44
2023/06/24 02:28:19;;;;;;;15.50;5.60;;;;;;;20.19;100.00;100299.91;104789;1263;71783;-44
2023/06/24 02:30:46;;;;;;;16.60;6.20;;;;;;;20.19;100.00;100317.46;105090;1266;63970;-44
2023/06/24 02:33:15;;;;;;;11.20;5.60;;;;;;;20.19;100.00;100334.46;105114;1263;71148;-44
2023/06/24 02:35:45;;;;;;;11.20;6.30;;;;;;;20.19;100.00;100347.42;104762;1263;59677;-45
2023/06/24 02:38:13;;;;;;;20.20;6.60;;;;;;;20.19;100.00;100357.94;105015;1268;59628;-45
2023/06/24 02:40:43;;;;;;;16.90;6.20;;;;;;;20.18;100.00;100367.44;105052;1261;71840;-44
2023/06/24 02:43:11;;;;;;;13.80;6.30;;;;;;;20.17;100.00;100381.53;105060;1263;63692;-42
2023/06/24 02:45:39;;;;;;;8.60;5.40;;;;;;;20.16;100.00;100389.80;105185;1264;71442;-43
2023/06/24 02:48:08;;;;;;;16.80;6.10;;;;;;;20.16;100.00;100392.23;105160;1266;60023;-43
2023/06/24 02:50:37;;;;;;;17.80;6.20;;;;;;;20.17;100.00;100391.67;105065;1262;60039;-43
2023/06/24 02:53:05;;;;;;;17.70;6.30;;;;;;;20.20;100.00;100391.51;105083;1263;72552;-43
2023/06/24 02:55:34;;;;;;;14.60;6.30;;;;;;;20.23;100.00;100396.19;105094;1268;64054;-43
2023/06/24 02:58:07;;;;;;;12.40;5.60;;;;;;;20.26;100.00;100402.70;105082;1268;71414;-43
2023/06/24 03:00:36;;;;;;;14.70;5.60;;;;;;;20.29;100.00;100389.37;104879;1264;59775;-43
2023/06/24 03:03:09;;;;;;;11.80;6.00;;;;;;;20.33;100.00;100392.98;105062;1269;59746;-43
2023/06/24 03:05:44;;;;;;;10.90;6.00;;;;;;;20.38;100.00;100386.56;104878;1272;73471;-42
2023/06/24 03:08:12;;;;;;;7.00;5.80;;;;;;;20.44;100.00;100388.98;105040;1264;65342;-43
2023/06/24 03:10:41;;;;;;;18.20;5.80;;;;;;;20.50;100.00;100379.67;104998;1263;73192;-43
2023/06/24 03:13:13;;;;;;;11.50;5.70;;;;;;;20.58;100.00;100358.54;105101;1269;59704;-45
2023/06/24 03:15:44;;;;;;;15.40;6.00;;;;;;;20.65;100.00;100350.53;105083;1264;59595;-45
2023/06/24 03:18:12;;;;;;;11.40;5.30;;;;;;;20.72;100.00;100346.81;105035;1263;73063;-45
2023/06/24 03:20:40;;;;;;;12.60;5.00;;;;;;;20.79;100.00;100341.27;105036;1268;64191;-45
2023/06/24 03:23:11;;;;;;;15.80;6.10;;;;;;;20.87;100.00;100336.44;105025;1263;71482;-45
2023/06/24 03:25:39;;;;;;;7.10;5.40;;;;;;;20.92;100.00;100331.19;105109;1263;59746;-45
2023/06/24 03:28:07;;;;;;;19.60;6.30;;;;;;;21.00;100.00;100324.02;105048;1267;59600;-45
2023/06/24 03:30:39;;;;;;;6.70;5.80;;;;;;;21.07;100.00;100306.88;105038;1269;72057;-45
2023/06/24 03:33:07;;;;;;;6.80;5.80;;;;;;;21.17;100.00;100282.09;105047;1264;65212;-44
2023/06/24 03:35:35;;;;;;;17.50;5.40;;;;;;;21.24;100.00;100262.98;105130;1263;72591;-45
2023/06/24 03:38:05;;;;;;;12.00;6.80;;;;;;;21.34;100.00;100246.00;105034;1263;59649;-45
2023/06/24 03:40:33;;;;;;;7.70;5.20;;;;;;;21.48;100.00;100217.34;105051;1263;59554;-45
2023/06/24 03:43:00;;;;;;;9.90;5.10;;;;;;;21.68;100.00;100195.13;104950;1263;73148;-45
2023/06/24 03:45:28;;;;;;;10.90;5.50;;;;;;;21.92;100.00;100175.74;104834;1268;64503;-43
2023/06/24 03:47:56;;;;;;;17.60;5.60;;;;;;;22.16;100.00;100153.67;105076;1263;72688;-44
2023/06/24 03:50:24;;;;;;;14.80;5.40;;;;;;;22.44;100.00;100126.94;105111;1261;60060;-43
2023/06/24 03:52:52;;;;;;;15.30;6.00;;;;;;;22.72;100.00;100099.55;105244;1264;59615;-44
2023/06/24 03:55:21;;;;;;;15.40;5.50;;;;;;;22.98;100.00;100080.70;105062;1262;73015;-43
2023/06/24 03:57:49;;;;;;;10.90;5.60;;;;;;;23.27;100.00;100070.79;105087;1264;63930;-44
2023/06/24 04:00:20;;;;;;;12.50;5.60;;;;;;;23.51;100.00;100073.31;105131;1266;71321;-44
2023/06/24 04:02:48;;;;;;;13.90;5.90;;;;;;;23.72;100.00;100084.71;105412;1266;59767;-44
2023/06/24 04:05:16;;;;;;;10.20;5.30;;;;;;;23.88;100.00;100117.30;105128;1269;59711;-43
2023/06/24 04:07:46;;;;;;;12.20;5.40;;;;;;;23.91;100.00;100140.96;104952;1268;72165;-44
2023/06/24 04:10:17;;;;;;;10.10;5.70;;;;;;;23.87;100.00;100150.11;105196;1264;65419;-44
2023/06/24 04:12:46;;;;;;;8.40;5.00;;;;;;;23.89;100.00;100145.02;105126;1262;71903;-43
2023/06/24 04:15:14;;;;;;;13.60;5.80;;;;;;;23.89;100.00;100140.43;105162;1263;60237;-44
2023/06/24 04:17:41;;;;;;;9.70;5.10;;;;;;;23.79;100.00;100148.77;104938;1262;60218;-45
2023/06/24 04:20:10;;;;;;;18.70;6.10;;;;;;;23.69;100.00;100135.80;105085;1266;73011;-45
2023/06/24 04:22:39;;;;;;;10.40;5.10;;;;;;;23.63;100.00;100129.98;105177;1263;65287;-44
2023/06/24 04:25:07;;;;;;;10.90;5.40;;;;;;;23.54;100.00;100119.89;104922;1267;71457;-44
2023/06/24 04:27:35;;;;;;;8.90;5.70;;;;;;;23.49;100.00;100109.23;105232;1265;59708;-45
2023/06/24 04:30:05;;;;;;;11.90;5.70;;;;;;;23.52;100.00;100104.44;105444;1261;59775;-45
2023/06/24 04:32:33;;;;;;;12.20;6.20;;;;;;;23.65;100.00;100095.29;105125;1261;73460;-45
2023/06/24 04:35:01;;;;;;;9.70;5.20;;;;;;;23.91;100.00;100089.52;105219;1266;65249;-45
2023/06/24 04:37:29;;;;;;;11.00;5.80;;;;;;;24.14;100.00;100093.50;105374;1260;71068;-45
2023/06/24 04:39:56;;;;;;;14.90;5.50;;;;;;;24.35;100.00;100096.44;105187;1260;60065;-45
2023/06/24 04:42:25;;;;;;;12.70;5.30;;;;;;;24.46;100.00;100113.17;105388;1261;60039;-45
2023/06/24 04:44:53;;;;;;;10.90;5.30;;;;;;;24.62;100.00;100116.84;105463;1262;70957;-45
2023/06/24 04:47:20;;;;;;;10.80;5.50;;;;;;;24.84;100.00;100131.08;105421;1260;63920;-44
2023/06/24 04:49:48;;;;;;;12.10;5.50;;;;;;;24.97;100.00;100170.73;105205;1263;71464;-45
2023/06/24 04:52:16;;;;;;;16.90;5.60;;;;;;;25.07;100.00;100210.49;105393;1260;60131;-45
2023/06/24 04:54:43;;;;;;;8.90;5.60;;;;;;;25.10;100.00;100255.26;105188;1261;60077;-45
2023/06/24 04:57:29;;;;;;;12.00;6.00;;;;;;;25.11;100.00;100265.05;105413;1260;73149;-45
2023/06/24 04:59:57;;;;;;;14.40;6.40;;;;;;;25.12;100.00;100273.45;105332;1260;63529;-45
2023/06/24 05:02:25;;;;;;;11.50;5.80;;;;;;;25.18;100.00;100264.52;105202;1264;72696;-45
2023/06/24 05:04:53;;;;;;;20.30;6.30;;;;;;;25.31;100.00;100265.90;105257;1265;59747;-45
2023/06/24 05:07:21;;;;;;;15.70;6.30;;;;;;;25.49;100.00;100274.66;105261;1266;59659;-45
2023/06/24 05:09:51;;;;;;;13.90;6.10;;;;;;;25.69;100.00;100270.14;105241;1260;71801;-45
2023/06/24 05:12:18;;;;;;;14.70;5.90;;;;;;;25.97;100.00;100274.48;105385;1262;65041;-45
2023/06/24 05:14:51;;;;;;;14.30;6.00;;;;;;;26.14;100.00;100320.61;105296;1260;71445;-45
2023/06/24 05:17:20;;;;;;;14.60;5.60;;;;;;;26.31;100.00;100332.93;105337;1261;59695;-43
2023/06/24 05:19:48;;;;;;;10.30;5.60;;;;;;;26.45;100.00;100354.52;105249;1265;59959;-44
2023/06/24 05:22:16;;;;;;;14.10;6.40;;;;;;;26.54;100.00;100367.19;105504;1263;72236;-44
2023/06/24 05:24:44;;;;;;;11.70;6.60;;;;;;;26.57;100.00;100380.73;105258;1260;64072;-44
2023/06/24 05:27:14;;;;;;;22.40;6.60;;;;;;;26.66;100.00;100391.27;105298;1264;72604;-44
2023/06/24 05:29:42;;;;;;;17.90;6.40;;;;;;;26.75;100.00;100399.33;105191;1260;59709;-44
2023/06/24 05:32:10;;;;;;;15.10;6.20;;;;;;;26.88;100.00;100401.09;105161;1261;60029;-44
2023/06/24 05:34:37;;;;;;;13.00;6.20;;;;;;;27.07;100.00;100408.45;105211;1260;73099;-43
2023/06/24 05:37:05;;;;;;;11.60;6.10;;;;;;;27.28;100.00;100409.91;105238;1259;64032;-43
2023/06/24 05:39:33;;;;;;;16.20;6.20;;;;;;;27.48;100.00;100408.83;105230;1266;71463;-44
2023/06/24 05:42:00;;;;;;;14.50;5.80;;;;;;;27.63;100.00;100396.23;105302;1261;59979;-44
2023/06/24 05:44:29;;;;;;;7.90;6.30;;;;;;;27.64;100.00;100420.23;105211;1263;59583;-44
2023/06/24 05:46:56;;;;;;;23.20;6.70;;;;;;;27.71;100.00;100420.95;105218;1260;72550;-44
2023/06/24 05:49:25;;;;;;;14.00;6.40;;;;;;;27.76;100.00;100426.54;105147;1260;65490;-45
2023/06/24 05:51:52;;;;;;;19.30;6.40;;;;;;;27.79;100.00;100426.10;105406;1260;72237;-44
2023/06/24 05:54:20;;;;;;;14.00;6.70;;;;;;;27.84;100.00;100434.72;105191;1264;60461;-45
2023/06/24 05:56:48;;;;;;;13.20;5.70;;;;;;;28.07;100.00;100434.52;105228;1264;60351;-45
2023/06/24 05:59:15;;;;;;;12.30;6.50;;;;;;;28.38;100.00;100423.47;105179;1261;72689;-44
2023/06/24 06:01:43;;;;;;;19.30;7.30;;;;;;;28.67;100.00;100416.55;105227;1266;63952;-46
2023/06/24 06:04:11;;;;;;;12.10;6.20;;;;;;;28.86;97.57;100415.47;105200;1265;71379;-45
2023/06/24 06:06:39;;;;;;;12.70;6.00;;;;;;;28.88;94.96;100414.91;105212;1260;60498;-44
2023/06/24 06:09:06;;;;;;;9.30;6.10;;;;;;;28.96;94.62;100418.77;105189;1264;60390;-44
2023/06/24 06:11:34;;;;;;;13.70;6.10;;;;;;;29.06;94.04;100422.06;105410;1263;73855;-44
2023/06/24 06:14:02;;;;;;;13.40;5.90;;;;;;;29.20;90.21;100410.73;105195;1260;64349;-44
2023/06/24 06:16:29;;;;;;;6.30;5.70;;;;;;;29.39;92.56;100414.79;105140;1260;72691;-45
2023/06/24 06:18:57;;;;;;;7.50;6.10;;;;;;;29.53;86.38;100400.39;105248;1261;60443;-45
2023/06/24 06:21:25;;;;;;;11.00;6.20;;;;;;;29.58;86.16;100414.17;105137;1264;60367;-45
2023/06/24 06:23:53;;;;;;;12.90;6.20;;;;;;;29.59;83.74;100403.04;105150;1261;73134;-45
2023/06/24 06:26:21;;;;;;;6.70;5.70;;;;;;;29.49;87.98;100430.48;105213;1265;64043;-45
2023/06/24 06:28:49;;;;;;;9.80;6.20;;;;;;;29.34;88.66;100421.09;105199;1264;73067;-45
2023/06/24 06:31:17;;;;;;;15.30;7.00;;;;;;;29.28;92.91;100441.08;105260;1261;60528;-45
2023/06/24 06:33:44;;;;;;;13.60;5.80;;;;;;;29.23;94.88;100441.33;105441;1263;60453;-45
2023/06/24 06:36:13;;;;;;;13.50;5.90;;;;;;;29.15;94.71;100438.61;105308;1259;72939;-45
2023/06/24 06:38:41;;;;;;;10.80;6.80;;;;;;;29.10;89.21;100419.74;105316;1260;65285;-45
2023/06/24 06:41:09;;;;;;;8.90;6.60;;;;;;;29.04;93.03;100433.46;105379;1261;71412;-45
2023/06/24 06:43:37;;;;;;;6.70;6.20;;;;;;;29.00;90.54;100426.94;105183;1260;60448;-45
2023/06/24 06:46:05;;;;;;;8.80;6.10;;;;;;;28.95;93.35;100432.39;105215;1262;60371;-45
2023/06/24 06:48:33;;;;;;;9.80;6.10;;;;;;;28.92;98.32;100441.83;105177;1264;73860;-46
2023/06/24 06:51:00;;;;;;;6.90;6.20;;;;;;;29.02;99.00;100439.34;105258;1263;64145;-45
2023/06/24 06:53:28;;;;;;;12.70;6.60;;;;;;;29.04;92.83;100426.19;105263;1263;72847;-45
2023/06/24 06:55:56;;;;;;;14.10;7.20;;;;;;;29.01;98.39;100441.00;105300;1261;60564;-46
2023/06/24 06:58:23;;;;;;;23.50;7.20;;;;;;;29.00;97.06;100437.90;105201;1264;60467;-45
2023/06/24 07:00:51;;;;;;;11.20;7.10;;;;;;;29.05;100.00;100457.52;105189;1263;73803;-44
2023/06/24 07:03:18;;;;;;;17.10;6.50;;;;;;;29.17;100.00;100437.90;105463;1261;64371;-45
2023/06/24 07:05:46;;;;;;;17.00;7.30;;;;;;;29.18;98.66;100438.66;105469;1270;72598;-45
2023/06/24 07:08:14;;;;;;;12.90;7.10;;;;;;;29.35;100.00;100452.67;105250;1263;60815;-44
2023/06/24 07:10:41;;;;;;;13.40;6.70;;;;;;;29.53;96.40;100436.91;105388;1262;60348;-46
2023/06/24 07:13:09;;;;;;;11.30;6.60;;;;;;;29.62;90.68;100429.62;105274;1261;72632;-46
2023/06/24 07:15:37;;;;;;;9.00;6.60;;;;;;;29.68;89.98;100439.63;105314;1263;65360;-45
2023/06/24 07:18:05;;;;;;;11.70;7.10;;;;;;;29.75;89.66;100441.04;105400;1263;72701;-46
2023/06/24 07:20:33;;;;;;;10.80;7.10;;;;;;;29.74;85.53;100429.05;105427;1264;60518;-44
2023/06/24 07:23:02;;;;;;;13.30;7.30;;;;;;;29.71;85.21;100438.36;105267;1265;60454;-45
2023/06/24 07:25:30;;;;;;;9.50;6.90;;;;;;;29.73;89.53;100457.45;105561;1263;73832;-44
2023/06/24 07:27:58;;;;;;;11.70;7.30;;;;;;;29.83;85.87;100438.13;105414;1263;65320;-45
2023/06/24 07:30:26;;;;;;;8.20;7.00;;;;;;;29.98;88.75;100452.11;105307;1263;72639;-46
2023/06/24 07:32:54;;;;;;;16.20;6.70;;;;;;;30.21;87.28;100443.41;105347;1264;60559;-44
2023/06/24 07:35:22;;;;;;;12.30;7.40;;;;;;;30.29;81.33;100413.92;105315;1261;61016;-44
2023/06/24 07:37:50;;;;;;;9.80;6.90;;;;;;;30.37;82.12;100433.25;105236;1263;73829;-45
2023/06/24 07:40:17;;;;;;;10.20;6.60;;;;;;;30.47;80.26;100420.52;105279;1264;64049;-45
2023/06/24 07:42:45;;;;;;;10.20;7.50;;;;;;;30.51;76.29;100391.80;105397;1263;72722;-45
2023/06/24 07:45:13;;;;;;;8.90;6.70;;;;;;;30.60;80.06;100432.70;105390;1267;60623;-45
2023/06/24 07:47:42;;;;;;;12.30;6.70;;;;;;;30.84;77.09;100397.86;105545;1263;60497;-45
2023/06/24 07:50:10;;;;;;;22.80;6.80;;;;;;;30.99;73.36;100363.13;105542;1258;73607;-45
2023/06/24 07:52:38;;;;;;;12.60;7.00;;;;;;;30.98;70.84;100357.02;105420;1263;64078;-46
2023/06/24 07:55:06;;;;;;;7.70;6.50;;;;;;;30.85;71.99;100390.61;105484;1258;71514;-47
2023/06/24 07:57:34;;;;;;;16.70;7.40;;;;;;;30.65;71.28;100397.99;105624;1261;60508;-45
2023/06/24 08:00:02;;;;;;;13.80;7.00;;;;;;;30.43;72.57;100424.30;105420;1259;60443;-45
2023/06/24 08:02:40;;;;;;;13.70;6.30;;;;;;;30.26;74.66;100456.85;105345;1263;72935;-45
2023/06/24 08:05:09;;;;;;;9.10;6.70;;;;;;;30.12;77.68;100481.70;105409;1262;64018;-46
2023/06/24 08:07:37;;;;;;;11.50;6.40;;;;;;;29.98;80.84;100492.86;105300;1264;71445;-45
2023/06/24 08:10:06;;;;;;;24.70;7.10;;;;;;;29.84;87.30;100516.07;105306;1263;60450;-45
2023/06/24 08:12:33;;;;;;;20.80;7.40;;;;;;;29.78;92.75;100516.33;105327;1273;60457;-45
2023/06/24 08:15:01;;;;;;;21.60;7.50;;;;;;;29.78;97.09;100508.85;105206;1259;72553;-44
2023/06/24 08:17:28;;;;;;;10.20;6.40;;;;;;;29.94;92.30;100485.64;105402;1265;65293;-45
2023/06/24 08:19:56;;;;;;;11.90;6.90;;;;;;;30.07;84.58;100464.23;105405;1263;72612;-45
2023/06/24 08:22:25;;;;;;;13.50;6.80;;;;;;;30.20;82.49;100461.35;105279;1260;60655;-45
2023/06/24 08:24:52;;;;;;;17.20;7.00;;;;;;;30.38;81.61;100450.94;105376;1259;60360;-45
2023/06/24 08:27:20;;;;;;;12.20;7.50;;;;;;;30.54;77.38;100440.22;105280;1261;72636;-45
2023/06/24 08:29:47;;;;;;;10.50;7.20;;;;;;;30.65;74.65;100424.23;105397;1262;64337;-45
2023/06/24 08:32:16;;;;;;;14.40;7.10;;;;;;;30.74;78.24;100462.77;105255;1260;71891;-45
2023/06/24 08:34:43;;;;;;;11.80;6.70;;;;;;;30.92;74.29;100432.20;105271;1264;60437;-45
2023/06/24 08:37:11;;;;;;;6.10;5.60;;;;;;;31.10;73.14;100424.10;105235;1264;60326;-45
2023/06/24 08:39:40;;;;;;;11.20;7.10;;;;;;;31.22;67.12;100351.29;105586;1263;75740;-45
2023/06/24 08:42:08;;;;;;;9.60;6.90;;;;;;;31.26;67.48;100382.16;105406;1262;64304;-46
2023/06/24 08:44:36;;;;;;;8.90;6.10;;;;;;;31.28;65.98;100365.45;105343;1260;71779;-46
2023/06/24 08:47:04;;;;;;;9.90;6.00;;;;;;;31.29;65.35;100363.54;105423;1260;60451;-46
2023/06/24 08:49:33;;;;;;;9.10;6.10;;;;;;;31.41;63.62;100337.45;105413;1263;61061;-46
2023/06/24 08:52:09;;;;;;;8.50;5.70;;;;;;;31.58;60.70;100284.61;105142;1258;72584;-46
2023/06/24 08:54:36;;;;;;;10.20;6.10;;;;;;;31.58;56.73;100183.94;105442;1264;65316;-45
2023/06/24 08:57:06;;;;;;;11.20;6.10;;;;;;;31.66;56.76;100217.61;105200;1264;71437;-45
2023/06/24 08:59:35;;;;;;;9.80;6.20;;;;;;;31.70;55.45;100187.50;105433;1260;60476;-45
2023/06/24 09:02:03;;;;;;;6.70;6.10;;;;;;;31.68;55.82;100225.23;105261;1258;60383;-45
2023/06/24 09:04:31;;;;;;;13.80;7.10;;;;;;;31.71;55.22;100211.36;105291;1261;72556;-45
2023/06/24 09:06:59;;;;;;;9.80;7.00;;;;;;;31.44;56.12;100267.91;105310;1260;64187;-46
2023/06/24 09:09:28;;;;;;;7.30;5.90;;;;;;;31.16;55.80;100262.11;105414;1263;71423;-45
2023/06/24 09:11:57;;;;;;;12.80;6.10;;;;;;;30.82;57.34;100324.66;105395;1259;60443;-45
2023/06/24 09:14:28;;;;;;;17.80;6.70;;;;;;;30.66;59.23;100384.75;105541;1259;60517;-45
2023/06/24 09:16:56;;;;;;;13.60;6.60;;;;;;;30.59;60.64;100404.70;105218;1264;73833;-45
2023/06/24 09:19:28;;;;;;;8.30;6.40;;;;;;;30.62;62.20;100430.52;105310;1261;65158;-45
2023/06/24 09:21:58;;;;;;;13.60;6.40;;;;;;;30.60;60.57;100389.22;105175;1263;72737;-46
2023/06/24 09:24:30;;;;;;;14.70;6.30;;;;;;;30.49;61.27;100401.77;105135;1264;60463;-46
2023/06/24 09:26:58;;;;;;;13.50;7.50;;;;;;;30.37;62.64;100428.21;105371;1262;60521;-46
2023/06/24 09:29:31;;;;;;;11.10;6.10;;;;;;;30.32;62.36;100414.55;105319;1259;73311;-45
2023/06/24 09:31:59;;;;;;;7.10;6.00;;;;;;;30.22;62.61;100420.23;105386;1257;64007;-45
2023/06/24 09:34:28;;;;;;;7.80;6.30;;;;;;;30.20;63.02;100429.63;105533;1260;71432;-45
2023/06/24 09:36:56;;;;;;;8.50;6.00;;;;;;;30.19;63.24;100431.55;105386;1262;60623;-46
2023/06/24 09:39:28;;;;;;;6.50;5.80;;;;;;;30.11;63.11;100426.84;105333;1260;62515;-45
2023/06/24 09:41:57;;;;;;;7.80;6.20;;;;;;;29.98;64.30;100455.29;105345;1264;73905;-46
2023/06/24 09:44:26;;;;;;;9.20;5.90;;;;;;;29.90;65.33;100470.54;105425;1261;65301;-46
2023/06/24 09:46:55;;;;;;;9.50;6.60;;;;;;;29.82;65.26;100459.59;105377;1262;71413;-46
2023/06/24 09:49:23;;;;;;;14.40;6.20;;;;;;;29.74;66.04;100463.23;105469;1260;60514;-45
2023/06/24 09:51:56;;;;;;;13.90;6.60;;;;;;;29.77;66.84;100467.57;105425;1257;60382;-45
2023/06/24 09:54:30;;;;;;;10.30;6.50;;;;;;;29.83;68.53;100481.86;105434;1258;72653;-45
2023/06/24 09:57:03;;;;;;;14.00;6.60;;;;;;;29.99;68.11;100461.66;105243;1264;64116;-46
2023/06/24 09:59:33;;;;;;;19.80;6.60;;;;;;;30.23;68.00;100455.63;105521;1264;71493;-46
2023/06/24 10:02:02;;;;;;;16.00;6.40;;;;;;;30.58;65.81;100413.01;105250;1263;60486;-46
2023/06/24 10:04:30;;;;;;;11.10;5.80;;;;;;;30.95;63.94;100370.49;105200;1266;60451;-46
2023/06/24 10:06:57;;;;;;;6.60;5.80;;;;;;;31.19;60.76;100305.60;105232;1263;72662;-46
2023/06/24 10:09:25;;;;;;;11.10;6.40;;;;;;;31.41;58.52;100257.11;105189;1264;65297;-46
2023/06/24 10:11:53;;;;;;;8.90;6.00;;;;;;;31.54;55.46;100169.84;105395;1259;72682;-46
2023/06/24 10:14:21;;;;;;;11.80;5.70;;;;;;;31.62;54.80;100175.77;105314;1263;60580;-46
2023/06/24 10:16:48;;;;;;;8.40;5.60;;;;;;;31.77;53.25;100122.40;105305;1258;60427;-46
2023/06/24 10:19:19;;;;;;;7.20;5.20;;;;;;;31.88;55.36;100239.21;105334;1263;73828;-45
2023/06/24 10:21:54;;;;;;;7.90;5.80;;;;;;;32.06;53.82;100174.17;105347;1263;65394;-45
2023/06/24 10:24:39;;;;;;;13.90;5.80;;;;;;;32.18;53.63;100175.24;105403;1263;71453;-49
2023/06/24 10:27:09;;;;;;;13.00;5.90;;;;;;;32.28;53.05;100157.98;105469;1263;61858;-45
2023/06/24 10:29:37;;;;;;;14.60;6.10;;;;;;;32.37;52.85;100155.92;105499;1262;60370;-45
2023/06/24 10:32:09;;;;;;;5.90;5.30;;;;;;;32.48;52.64;100153.40;105485;1259;73727;-45
2023/06/24 10:34:37;;;;;;;6.30;5.70;;;;;;;32.62;52.54;100150.21;105367;1259;64040;-46
2023/06/24 10:37:08;;;;;;;6.10;5.60;;;;;;;32.56;52.30;100136.33;105300;1263;71427;-46
2023/06/24 10:39:54;;;;;;;7.40;5.60;;;;;;;32.48;51.99;100135.98;105340;1259;61921;-46
2023/06/24 10:42:39;;;;;;;7.70;5.80;;;;;;;32.53;51.67;100126.51;105339;1264;60353;-45
2023/06/24 10:45:10;;;;;;;9.70;4.90;;;;;;;32.69;52.32;100163.44;105420;1259;73055;-46
2023/06/24 10:47:41;;;;;;;5.50;4.90;;;;;;;33.01;52.35;100157.44;105204;1264;63933;-45
2023/06/24 10:50:11;;;;;;;6.60;6.00;;;;;;;33.16;50.53;100044.01;105513;1263;71387;-45
2023/06/24 10:52:43;;;;;;;14.20;5.40;;;;;;;33.26;50.73;100074.98;105333;1259;60510;-46
2023/06/24 10:55:13;;;;;;;8.10;5.90;;;;;;;33.35;51.21;100112.98;105517;1263;60568;-46
2023/06/24 10:57:41;;;;;;;19.50;5.70;;;;;;;33.58;50.99;100091.52;105434;1261;73799;-45
2023/06/24 11:00:11;;;;;;;11.70;5.90;;;;;;;33.69;49.18;99972.41;105393;1262;64054;-46
2023/06/24 11:02:38;;;;;;;12.80;5.40;;;;;;;33.76;49.49;100004.83;105456;1257;72305;-47
2023/06/24 11:05:07;;;;;;;6.80;5.50;;;;;;;34.03;51.66;100167.20;105617;1263;61113;-46
2023/06/24 11:07:36;;;;;;;6.30;5.20;;;;;;;34.46;50.54;100068.25;105509;1261;60468;-46
2023/06/24 11:10:05;;;;;;;6.00;4.60;;;;;;;34.84;48.46;99905.69;105456;1261;72952;-45
2023/06/24 11:12:37;;;;;;;8.20;5.30;;;;;;;35.00;47.20;99820.14;105330;1263;65194;-46
2023/06/24 11:15:06;;;;;;;8.10;5.20;;;;;;;35.30;48.51;99957.08;105518;1263;72693;-46
2023/06/24 11:17:35;;;;;;;10.90;5.40;;;;;;;35.59;48.45;99941.74;105445;1262;60511;-46